sensor_id;sensor_type;location;lat;lon;timestamp;P1;durP1;ratioP1;P2;durP2;ratioP2
76566;SDS011;65428;53.194;6.132;2023-12-20T00:01:00;20.38;;;2.15;;
76566;SDS011;65428;53.194;6.132;2023-12-20T00:03:26;19.35;;;1.98;;
76566;SDS011;65428;53.194;6.132;2023-12-20T00:05:51;21.13;;;2.15;;
76566;SDS011;65428;53.194;6.132;2023-12-20T00:08:17;15.67;;;1.50;;
76566;SDS011;65428;53.194;6.132;2023-12-20T00:10:43;15.50;;;1.97;;
76566;SDS011;65428;53.194;6.132;2023-12-20T00:13:09;16.90;;;1.75;;
76566;SDS011;65428;53.194;6.132;2023-12-20T00:15:35;18.33;;;1.65;;
76566;SDS011;65428;53.194;6.132;2023-12-20T00:18:01;13.13;;;1.70;;
76566;SDS011;65428;53.194;6.132;2023-12-20T00:20:27;14.53;;;2.17;;
76566;SDS011;65428;53.194;6.132;2023-12-20T00:22:54;14.20;;;1.13;;
76566;SDS011;65428;53.194;6.132;2023-12-20T00:25:23;15.32;;;1.50;;
76566;SDS011;65428;53.194;6.132;2023-12-20T00:27:49;10.38;;;1.15;;
76566;SDS011;65428;53.194;6.132;2023-12-20T00:30:15;11.55;;;1.13;;
76566;SDS011;65428;53.194;6.132;2023-12-20T00:32:41;10.50;;;1.58;;
76566;SDS011;65428;53.194;6.132;2023-12-20T00:35:11;10.18;;;1.15;;
76566;SDS011;65428;53.194;6.132;2023-12-20T00:37:38;9.63;;;0.93;;
76566;SDS011;65428;53.194;6.132;2023-12-20T00:40:04;15.83;;;1.77;;
76566;SDS011;65428;53.194;6.132;2023-12-20T00:42:30;11.73;;;1.60;;
76566;SDS011;65428;53.194;6.132;2023-12-20T00:44:56;14.93;;;1.60;;
76566;SDS011;65428;53.194;6.132;2023-12-20T00:47:21;14.70;;;1.75;;
76566;SDS011;65428;53.194;6.132;2023-12-20T00:49:47;17.67;;;1.85;;
76566;SDS011;65428;53.194;6.132;2023-12-20T00:52:12;16.73;;;2.07;;
76566;SDS011;65428;53.194;6.132;2023-12-20T00:54:39;20.10;;;2.53;;
76566;SDS011;65428;53.194;6.132;2023-12-20T00:57:04;23.33;;;2.97;;
76566;SDS011;65428;53.194;6.132;2023-12-20T00:59:30;20.55;;;2.25;;
76566;SDS011;65428;53.194;6.132;2023-12-20T01:01:55;19.70;;;2.65;;
76566;SDS011;65428;53.194;6.132;2023-12-20T01:04:21;21.47;;;2.63;;
76566;SDS011;65428;53.194;6.132;2023-12-20T01:06:47;20.83;;;2.78;;
76566;SDS011;65428;53.194;6.132;2023-12-20T01:09:12;20.20;;;3.00;;
76566;SDS011;65428;53.194;6.132;2023-12-20T01:11:38;32.50;;;4.10;;
76566;SDS011;65428;53.194;6.132;2023-12-20T01:14:03;23.17;;;3.78;;
76566;SDS011;65428;53.194;6.132;2023-12-20T01:16:29;22.10;;;3.27;;
76566;SDS011;65428;53.194;6.132;2023-12-20T01:18:54;15.67;;;1.63;;
76566;SDS011;65428;53.194;6.132;2023-12-20T01:21:20;16.45;;;2.17;;
76566;SDS011;65428;53.194;6.132;2023-12-20T01:23:46;25.75;;;2.80;;
76566;SDS011;65428;53.194;6.132;2023-12-20T01:26:11;20.37;;;2.03;;
76566;SDS011;65428;53.194;6.132;2023-12-20T01:28:37;21.92;;;2.03;;
76566;SDS011;65428;53.194;6.132;2023-12-20T01:31:03;25.67;;;2.80;;
76566;SDS011;65428;53.194;6.132;2023-12-20T01:33:29;25.13;;;2.50;;
76566;SDS011;65428;53.194;6.132;2023-12-20T01:35:54;23.02;;;2.72;;
76566;SDS011;65428;53.194;6.132;2023-12-20T01:38:20;20.20;;;2.33;;
76566;SDS011;65428;53.194;6.132;2023-12-20T01:40:45;25.13;;;2.80;;
76566;SDS011;65428;53.194;6.132;2023-12-20T01:43:11;35.47;;;4.00;;
76566;SDS011;65428;53.194;6.132;2023-12-20T01:45:37;26.40;;;3.33;;
76566;SDS011;65428;53.194;6.132;2023-12-20T01:48:03;31.20;;;4.30;;
76566;SDS011;65428;53.194;6.132;2023-12-20T01:50:30;36.75;;;4.60;;
76566;SDS011;65428;53.194;6.132;2023-12-20T01:52:57;48.90;;;5.80;;
76566;SDS011;65428;53.194;6.132;2023-12-20T01:55:25;43.50;;;6.13;;
76566;SDS011;65428;53.194;6.132;2023-12-20T01:57:54;44.45;;;5.72;;
76566;SDS011;65428;53.194;6.132;2023-12-20T02:00:20;39.37;;;5.70;;
76566;SDS011;65428;53.194;6.132;2023-12-20T02:02:48;35.22;;;5.38;;
76566;SDS011;65428;53.194;6.132;2023-12-20T02:05:17;34.28;;;5.40;;
76566;SDS011;65428;53.194;6.132;2023-12-20T02:07:43;40.88;;;5.03;;
76566;SDS011;65428;53.194;6.132;2023-12-20T02:10:09;38.07;;;5.80;;
76566;SDS011;65428;53.194;6.132;2023-12-20T02:12:34;35.67;;;4.47;;
76566;SDS011;65428;53.194;6.132;2023-12-20T02:15:00;38.85;;;4.53;;
76566;SDS011;65428;53.194;6.132;2023-12-20T02:17:26;36.15;;;4.47;;
76566;SDS011;65428;53.194;6.132;2023-12-20T02:19:52;37.25;;;5.22;;
76566;SDS011;65428;53.194;6.132;2023-12-20T02:22:18;31.63;;;5.05;;
76566;SDS011;65428;53.194;6.132;2023-12-20T02:24:43;33.40;;;4.95;;
76566;SDS011;65428;53.194;6.132;2023-12-20T02:27:09;37.90;;;4.37;;
76566;SDS011;65428;53.194;6.132;2023-12-20T02:29:35;30.80;;;5.77;;
76566;SDS011;65428;53.194;6.132;2023-12-20T02:32:01;35.47;;;4.88;;
76566;SDS011;65428;53.194;6.132;2023-12-20T02:34:27;38.58;;;5.78;;
76566;SDS011;65428;53.194;6.132;2023-12-20T02:36:53;35.00;;;4.78;;
76566;SDS011;65428;53.194;6.132;2023-12-20T02:39:19;32.03;;;4.55;;
76566;SDS011;65428;53.194;6.132;2023-12-20T02:41:46;36.25;;;5.35;;
76566;SDS011;65428;53.194;6.132;2023-12-20T02:44:12;35.77;;;4.57;;
76566;SDS011;65428;53.194;6.132;2023-12-20T02:46:37;32.23;;;4.67;;
76566;SDS011;65428;53.194;6.132;2023-12-20T02:49:03;31.15;;;4.30;;
76566;SDS011;65428;53.194;6.132;2023-12-20T02:51:28;27.97;;;3.70;;
76566;SDS011;65428;53.194;6.132;2023-12-20T02:53:54;29.93;;;3.97;;
76566;SDS011;65428;53.194;6.132;2023-12-20T02:56:19;31.95;;;4.38;;
76566;SDS011;65428;53.194;6.132;2023-12-20T02:58:45;28.60;;;4.13;;
76566;SDS011;65428;53.194;6.132;2023-12-20T03:01:11;31.33;;;3.78;;
76566;SDS011;65428;53.194;6.132;2023-12-20T03:03:36;28.58;;;4.25;;
76566;SDS011;65428;53.194;6.132;2023-12-20T03:06:02;29.37;;;4.30;;
76566;SDS011;65428;53.194;6.132;2023-12-20T03:08:28;32.30;;;5.00;;
76566;SDS011;65428;53.194;6.132;2023-12-20T03:10:53;29.92;;;4.13;;
76566;SDS011;65428;53.194;6.132;2023-12-20T03:13:19;34.43;;;4.13;;
76566;SDS011;65428;53.194;6.132;2023-12-20T03:15:45;35.55;;;4.47;;
76566;SDS011;65428;53.194;6.132;2023-12-20T03:18:11;31.55;;;4.50;;
76566;SDS011;65428;53.194;6.132;2023-12-20T03:20:36;34.80;;;4.07;;
76566;SDS011;65428;53.194;6.132;2023-12-20T03:23:02;31.33;;;4.63;;
76566;SDS011;65428;53.194;6.132;2023-12-20T03:25:28;33.25;;;4.40;;
76566;SDS011;65428;53.194;6.132;2023-12-20T03:27:54;29.67;;;3.95;;
76566;SDS011;65428;53.194;6.132;2023-12-20T03:30:20;30.20;;;4.88;;
76566;SDS011;65428;53.194;6.132;2023-12-20T03:32:46;31.48;;;4.50;;
76566;SDS011;65428;53.194;6.132;2023-12-20T03:35:12;30.45;;;4.53;;
76566;SDS011;65428;53.194;6.132;2023-12-20T03:37:37;29.85;;;4.28;;
76566;SDS011;65428;53.194;6.132;2023-12-20T03:40:03;29.47;;;4.43;;
76566;SDS011;65428;53.194;6.132;2023-12-20T03:42:29;30.58;;;3.95;;
76566;SDS011;65428;53.194;6.132;2023-12-20T03:44:55;30.83;;;4.20;;
76566;SDS011;65428;53.194;6.132;2023-12-20T03:47:20;27.48;;;3.65;;
76566;SDS011;65428;53.194;6.132;2023-12-20T03:49:46;30.23;;;4.60;;
76566;SDS011;65428;53.194;6.132;2023-12-20T03:52:11;28.53;;;3.93;;
76566;SDS011;65428;53.194;6.132;2023-12-20T03:54:37;26.38;;;4.00;;
76566;SDS011;65428;53.194;6.132;2023-12-20T03:57:03;30.83;;;4.17;;
76566;SDS011;65428;53.194;6.132;2023-12-20T03:59:29;23.15;;;3.67;;
76566;SDS011;65428;53.194;6.132;2023-12-20T04:01:59;26.73;;;4.28;;
76566;SDS011;65428;53.194;6.132;2023-12-20T04:04:25;23.08;;;3.38;;
76566;SDS011;65428;53.194;6.132;2023-12-20T04:06:50;23.40;;;3.37;;
76566;SDS011;65428;53.194;6.132;2023-12-20T04:09:16;28.10;;;3.40;;
76566;SDS011;65428;53.194;6.132;2023-12-20T04:11:41;27.27;;;3.70;;
76566;SDS011;65428;53.194;6.132;2023-12-20T04:14:07;23.40;;;3.60;;
76566;SDS011;65428;53.194;6.132;2023-12-20T04:16:33;26.20;;;4.43;;
76566;SDS011;65428;53.194;6.132;2023-12-20T04:18:58;26.70;;;3.80;;
76566;SDS011;65428;53.194;6.132;2023-12-20T04:21:24;27.87;;;3.40;;
76566;SDS011;65428;53.194;6.132;2023-12-20T04:23:49;27.02;;;3.83;;
76566;SDS011;65428;53.194;6.132;2023-12-20T04:26:15;24.50;;;3.53;;
76566;SDS011;65428;53.194;6.132;2023-12-20T04:28:40;27.37;;;3.90;;
76566;SDS011;65428;53.194;6.132;2023-12-20T04:31:06;28.35;;;4.38;;
76566;SDS011;65428;53.194;6.132;2023-12-20T04:33:32;27.77;;;4.33;;
76566;SDS011;65428;53.194;6.132;2023-12-20T04:35:57;23.17;;;3.60;;
76566;SDS011;65428;53.194;6.132;2023-12-20T04:38:23;24.83;;;3.75;;
76566;SDS011;65428;53.194;6.132;2023-12-20T04:40:49;30.60;;;3.93;;
76566;SDS011;65428;53.194;6.132;2023-12-20T04:43:14;26.60;;;3.90;;
76566;SDS011;65428;53.194;6.132;2023-12-20T04:45:40;29.88;;;4.25;;
76566;SDS011;65428;53.194;6.132;2023-12-20T04:48:05;26.97;;;3.70;;
76566;SDS011;65428;53.194;6.132;2023-12-20T04:50:31;33.47;;;3.90;;
76566;SDS011;65428;53.194;6.132;2023-12-20T04:52:58;27.05;;;4.50;;
76566;SDS011;65428;53.194;6.132;2023-12-20T04:55:23;29.67;;;4.73;;
76566;SDS011;65428;53.194;6.132;2023-12-20T04:57:49;27.17;;;3.97;;
76566;SDS011;65428;53.194;6.132;2023-12-20T05:00:15;23.88;;;3.75;;
76566;SDS011;65428;53.194;6.132;2023-12-20T05:02:41;25.27;;;3.70;;
76566;SDS011;65428;53.194;6.132;2023-12-20T05:05:06;23.77;;;3.90;;
76566;SDS011;65428;53.194;6.132;2023-12-20T05:07:32;22.23;;;3.63;;
76566;SDS011;65428;53.194;6.132;2023-12-20T05:09:58;27.43;;;3.40;;
76566;SDS011;65428;53.194;6.132;2023-12-20T05:12:24;24.77;;;3.40;;
76566;SDS011;65428;53.194;6.132;2023-12-20T05:14:51;25.80;;;4.00;;
76566;SDS011;65428;53.194;6.132;2023-12-20T05:17:17;21.73;;;3.30;;
76566;SDS011;65428;53.194;6.132;2023-12-20T05:19:42;24.27;;;3.65;;
76566;SDS011;65428;53.194;6.132;2023-12-20T05:22:08;23.30;;;4.00;;
76566;SDS011;65428;53.194;6.132;2023-12-20T05:24:34;23.80;;;4.03;;
76566;SDS011;65428;53.194;6.132;2023-12-20T05:27:00;24.60;;;3.27;;
76566;SDS011;65428;53.194;6.132;2023-12-20T05:29:25;25.67;;;4.00;;
76566;SDS011;65428;53.194;6.132;2023-12-20T05:31:51;23.77;;;3.90;;
76566;SDS011;65428;53.194;6.132;2023-12-20T05:34:16;25.10;;;3.37;;
76566;SDS011;65428;53.194;6.132;2023-12-20T05:36:42;29.38;;;4.35;;
76566;SDS011;65428;53.194;6.132;2023-12-20T05:39:08;25.67;;;4.15;;
76566;SDS011;65428;53.194;6.132;2023-12-20T05:41:34;23.57;;;3.80;;
76566;SDS011;65428;53.194;6.132;2023-12-20T05:43:59;23.23;;;3.30;;
76566;SDS011;65428;53.194;6.132;2023-12-20T05:46:25;26.50;;;4.38;;
76566;SDS011;65428;53.194;6.132;2023-12-20T05:48:51;24.95;;;3.90;;
76566;SDS011;65428;53.194;6.132;2023-12-20T05:51:17;22.33;;;3.20;;
76566;SDS011;65428;53.194;6.132;2023-12-20T05:53:43;24.30;;;3.88;;
76566;SDS011;65428;53.194;6.132;2023-12-20T05:56:09;25.67;;;3.70;;
76566;SDS011;65428;53.194;6.132;2023-12-20T05:58:35;28.52;;;4.40;;
76566;SDS011;65428;53.194;6.132;2023-12-20T06:01:04;25.63;;;4.05;;
76566;SDS011;65428;53.194;6.132;2023-12-20T06:03:30;20.77;;;3.27;;
76566;SDS011;65428;53.194;6.132;2023-12-20T06:05:56;20.47;;;3.47;;
76566;SDS011;65428;53.194;6.132;2023-12-20T06:08:22;25.25;;;3.50;;
76566;SDS011;65428;53.194;6.132;2023-12-20T06:10:48;24.88;;;4.03;;
76566;SDS011;65428;53.194;6.132;2023-12-20T06:13:14;24.50;;;3.63;;
76566;SDS011;65428;53.194;6.132;2023-12-20T06:15:42;23.75;;;3.50;;
76566;SDS011;65428;53.194;6.132;2023-12-20T06:18:08;22.60;;;3.85;;
76566;SDS011;65428;53.194;6.132;2023-12-20T06:20:34;23.83;;;3.30;;
76566;SDS011;65428;53.194;6.132;2023-12-20T06:23:00;26.15;;;3.63;;
76566;SDS011;65428;53.194;6.132;2023-12-20T06:25:26;24.15;;;3.92;;
76566;SDS011;65428;53.194;6.132;2023-12-20T06:27:52;20.53;;;3.73;;
76566;SDS011;65428;53.194;6.132;2023-12-20T06:30:17;21.70;;;3.67;;
76566;SDS011;65428;53.194;6.132;2023-12-20T06:32:43;20.83;;;3.25;;
76566;SDS011;65428;53.194;6.132;2023-12-20T06:35:09;24.17;;;3.92;;
76566;SDS011;65428;53.194;6.132;2023-12-20T06:37:35;21.75;;;4.05;;
76566;SDS011;65428;53.194;6.132;2023-12-20T06:40:01;22.27;;;3.97;;
76566;SDS011;65428;53.194;6.132;2023-12-20T06:42:30;22.58;;;3.70;;
76566;SDS011;65428;53.194;6.132;2023-12-20T06:44:55;23.40;;;3.97;;
76566;SDS011;65428;53.194;6.132;2023-12-20T06:47:21;19.67;;;3.83;;
76566;SDS011;65428;53.194;6.132;2023-12-20T06:49:47;22.40;;;3.92;;
76566;SDS011;65428;53.194;6.132;2023-12-20T06:52:13;22.02;;;3.83;;
76566;SDS011;65428;53.194;6.132;2023-12-20T06:54:38;22.38;;;3.40;;
76566;SDS011;65428;53.194;6.132;2023-12-20T06:57:07;27.50;;;4.47;;
76566;SDS011;65428;53.194;6.132;2023-12-20T06:59:37;27.95;;;4.38;;
76566;SDS011;65428;53.194;6.132;2023-12-20T07:02:04;25.20;;;4.38;;
76566;SDS011;65428;53.194;6.132;2023-12-20T07:04:30;24.10;;;3.83;;
76566;SDS011;65428;53.194;6.132;2023-12-20T07:06:59;27.70;;;4.17;;
76566;SDS011;65428;53.194;6.132;2023-12-20T07:09:25;22.07;;;4.37;;
76566;SDS011;65428;53.194;6.132;2023-12-20T07:11:52;24.88;;;4.15;;
76566;SDS011;65428;53.194;6.132;2023-12-20T07:14:17;26.23;;;4.38;;
76566;SDS011;65428;53.194;6.132;2023-12-20T07:16:46;22.73;;;3.45;;
76566;SDS011;65428;53.194;6.132;2023-12-20T07:19:12;29.05;;;4.25;;
76566;SDS011;65428;53.194;6.132;2023-12-20T07:21:38;23.10;;;4.03;;
76566;SDS011;65428;53.194;6.132;2023-12-20T07:24:06;20.60;;;3.85;;
76566;SDS011;65428;53.194;6.132;2023-12-20T07:26:32;21.95;;;3.50;;
76566;SDS011;65428;53.194;6.132;2023-12-20T07:28:59;22.83;;;3.87;;
76566;SDS011;65428;53.194;6.132;2023-12-20T07:31:24;18.80;;;3.17;;
76566;SDS011;65428;53.194;6.132;2023-12-20T07:33:50;24.75;;;4.03;;
76566;SDS011;65428;53.194;6.132;2023-12-20T07:36:19;27.10;;;3.80;;
76566;SDS011;65428;53.194;6.132;2023-12-20T07:38:45;24.27;;;4.60;;
76566;SDS011;65428;53.194;6.132;2023-12-20T07:41:10;21.27;;;3.20;;
76566;SDS011;65428;53.194;6.132;2023-12-20T07:43:36;20.73;;;3.33;;
76566;SDS011;65428;53.194;6.132;2023-12-20T07:46:05;21.13;;;3.83;;
76566;SDS011;65428;53.194;6.132;2023-12-20T07:48:32;20.95;;;3.28;;
76566;SDS011;65428;53.194;6.132;2023-12-20T07:50:59;23.27;;;3.95;;
76566;SDS011;65428;53.194;6.132;2023-12-20T07:53:28;22.70;;;3.50;;
76566;SDS011;65428;53.194;6.132;2023-12-20T07:55:54;24.17;;;4.18;;
76566;SDS011;65428;53.194;6.132;2023-12-20T07:58:20;23.67;;;3.65;;
76566;SDS011;65428;53.194;6.132;2023-12-20T08:00:47;23.48;;;3.80;;
76566;SDS011;65428;53.194;6.132;2023-12-20T08:03:12;22.20;;;4.78;;
76566;SDS011;65428;53.194;6.132;2023-12-20T08:05:38;28.75;;;4.88;;
76566;SDS011;65428;53.194;6.132;2023-12-20T08:08:06;24.02;;;4.30;;
76566;SDS011;65428;53.194;6.132;2023-12-20T08:10:32;22.48;;;4.13;;
76566;SDS011;65428;53.194;6.132;2023-12-20T08:12:58;21.85;;;4.00;;
76566;SDS011;65428;53.194;6.132;2023-12-20T08:15:24;19.67;;;2.80;;
76566;SDS011;65428;53.194;6.132;2023-12-20T08:17:53;16.45;;;2.83;;
76566;SDS011;65428;53.194;6.132;2023-12-20T08:20:21;16.60;;;3.13;;
76566;SDS011;65428;53.194;6.132;2023-12-20T08:22:50;17.98;;;2.60;;
76566;SDS011;65428;53.194;6.132;2023-12-20T08:25:15;13.37;;;2.07;;
76566;SDS011;65428;53.194;6.132;2023-12-20T08:27:41;13.03;;;1.60;;
76566;SDS011;65428;53.194;6.132;2023-12-20T08:30:15;16.13;;;2.58;;
76566;SDS011;65428;53.194;6.132;2023-12-20T08:32:47;16.97;;;2.73;;
76566;SDS011;65428;53.194;6.132;2023-12-20T08:35:13;17.75;;;2.72;;
76566;SDS011;65428;53.194;6.132;2023-12-20T08:37:39;19.90;;;3.17;;
76566;SDS011;65428;53.194;6.132;2023-12-20T08:40:04;19.80;;;3.35;;
76566;SDS011;65428;53.194;6.132;2023-12-20T08:42:31;23.23;;;3.33;;
76566;SDS011;65428;53.194;6.132;2023-12-20T08:44:57;26.42;;;3.83;;
76566;SDS011;65428;53.194;6.132;2023-12-20T08:47:29;25.23;;;4.13;;
76566;SDS011;65428;53.194;6.132;2023-12-20T08:49:55;26.00;;;3.47;;
76566;SDS011;65428;53.194;6.132;2023-12-20T08:52:25;20.15;;;3.47;;
76566;SDS011;65428;53.194;6.132;2023-12-20T08:54:54;21.33;;;3.63;;
76566;SDS011;65428;53.194;6.132;2023-12-20T08:57:20;11.87;;;1.50;;
76566;SDS011;65428;53.194;6.132;2023-12-20T08:59:46;10.85;;;0.80;;
76566;SDS011;65428;53.194;6.132;2023-12-20T09:02:13;10.00;;;0.82;;
76566;SDS011;65428;53.194;6.132;2023-12-20T09:04:39;13.95;;;0.93;;
76566;SDS011;65428;53.194;6.132;2023-12-20T09:07:05;9.27;;;0.80;;
76566;SDS011;65428;53.194;6.132;2023-12-20T09:09:31;7.50;;;0.50;;
76566;SDS011;65428;53.194;6.132;2023-12-20T09:11:59;6.63;;;0.65;;
76566;SDS011;65428;53.194;6.132;2023-12-20T09:14:25;7.10;;;0.40;;
76566;SDS011;65428;53.194;6.132;2023-12-20T09:16:51;9.82;;;0.70;;
76566;SDS011;65428;53.194;6.132;2023-12-20T09:19:17;9.30;;;1.08;;
76566;SDS011;65428;53.194;6.132;2023-12-20T09:21:43;10.18;;;0.60;;
76566;SDS011;65428;53.194;6.132;2023-12-20T09:24:09;11.82;;;1.20;;
76566;SDS011;65428;53.194;6.132;2023-12-20T09:26:34;12.60;;;0.77;;
76566;SDS011;65428;53.194;6.132;2023-12-20T09:29:00;9.33;;;0.80;;
76566;SDS011;65428;53.194;6.132;2023-12-20T09:31:26;11.07;;;0.80;;
76566;SDS011;65428;53.194;6.132;2023-12-20T09:33:51;13.45;;;1.33;;
76566;SDS011;65428;53.194;6.132;2023-12-20T09:36:17;12.93;;;1.30;;
76566;SDS011;65428;53.194;6.132;2023-12-20T09:38:43;15.37;;;1.07;;
76566;SDS011;65428;53.194;6.132;2023-12-20T09:41:08;13.55;;;1.08;;
76566;SDS011;65428;53.194;6.132;2023-12-20T09:43:37;18.08;;;1.30;;
76566;SDS011;65428;53.194;6.132;2023-12-20T09:46:05;11.30;;;0.93;;
76566;SDS011;65428;53.194;6.132;2023-12-20T09:48:32;17.45;;;1.05;;
76566;SDS011;65428;53.194;6.132;2023-12-20T09:50:59;16.70;;;1.33;;
76566;SDS011;65428;53.194;6.132;2023-12-20T09:53:25;18.67;;;1.80;;
76566;SDS011;65428;53.194;6.132;2023-12-20T09:55:56;14.93;;;1.60;;
76566;SDS011;65428;53.194;6.132;2023-12-20T09:58:27;15.63;;;1.40;;
76566;SDS011;65428;53.194;6.132;2023-12-20T10:00:53;18.47;;;1.57;;
76566;SDS011;65428;53.194;6.132;2023-12-20T10:03:23;17.70;;;2.00;;
76566;SDS011;65428;53.194;6.132;2023-12-20T10:05:52;14.65;;;1.27;;
76566;SDS011;65428;53.194;6.132;2023-12-20T10:08:20;13.32;;;1.13;;
76566;SDS011;65428;53.194;6.132;2023-12-20T10:10:47;12.45;;;1.10;;
76566;SDS011;65428;53.194;6.132;2023-12-20T10:13:13;13.65;;;1.38;;
76566;SDS011;65428;53.194;6.132;2023-12-20T10:15:40;11.90;;;1.17;;
76566;SDS011;65428;53.194;6.132;2023-12-20T10:18:06;12.90;;;1.23;;
76566;SDS011;65428;53.194;6.132;2023-12-20T10:20:32;13.13;;;1.27;;
76566;SDS011;65428;53.194;6.132;2023-12-20T10:22:58;11.30;;;0.85;;
76566;SDS011;65428;53.194;6.132;2023-12-20T10:25:24;15.20;;;1.45;;
76566;SDS011;65428;53.194;6.132;2023-12-20T10:28:08;14.50;;;1.80;;
76566;SDS011;65428;53.194;6.132;2023-12-20T10:30:36;11.30;;;1.42;;
76566;SDS011;65428;53.194;6.132;2023-12-20T10:33:01;12.18;;;1.25;;
76566;SDS011;65428;53.194;6.132;2023-12-20T10:35:27;10.65;;;1.10;;
76566;SDS011;65428;53.194;6.132;2023-12-20T10:37:56;13.93;;;1.17;;
76566;SDS011;65428;53.194;6.132;2023-12-20T10:40:21;11.10;;;0.75;;
76566;SDS011;65428;53.194;6.132;2023-12-20T10:42:48;13.30;;;1.58;;
76566;SDS011;65428;53.194;6.132;2023-12-20T10:45:15;13.77;;;1.20;;
76566;SDS011;65428;53.194;6.132;2023-12-20T10:47:43;13.37;;;1.47;;
76566;SDS011;65428;53.194;6.132;2023-12-20T10:50:11;14.70;;;1.60;;
76566;SDS011;65428;53.194;6.132;2023-12-20T10:52:37;12.35;;;1.50;;
76566;SDS011;65428;53.194;6.132;2023-12-20T10:55:05;17.35;;;2.40;;
76566;SDS011;65428;53.194;6.132;2023-12-20T10:57:31;13.90;;;1.50;;
76566;SDS011;65428;53.194;6.132;2023-12-20T10:59:59;13.83;;;1.30;;
76566;SDS011;65428;53.194;6.132;2023-12-20T11:02:33;12.20;;;1.27;;
76566;SDS011;65428;53.194;6.132;2023-12-20T11:07:36;13.60;;;1.87;;
76566;SDS011;65428;53.194;6.132;2023-12-20T11:10:40;15.63;;;1.60;;
76566;SDS011;65428;53.194;6.132;2023-12-20T11:16:19;15.30;;;2.00;;
76566;SDS011;65428;53.194;6.132;2023-12-20T11:18:45;15.30;;;2.03;;
76566;SDS011;65428;53.194;6.132;2023-12-20T11:21:11;15.67;;;1.63;;
76566;SDS011;65428;53.194;6.132;2023-12-20T11:23:39;14.48;;;1.95;;
76566;SDS011;65428;53.194;6.132;2023-12-20T11:26:07;17.80;;;1.98;;
76566;SDS011;65428;53.194;6.132;2023-12-20T11:28:33;14.93;;;1.70;;
76566;SDS011;65428;53.194;6.132;2023-12-20T11:31:00;15.90;;;1.80;;
76566;SDS011;65428;53.194;6.132;2023-12-20T11:33:36;14.60;;;1.50;;
76566;SDS011;65428;53.194;6.132;2023-12-20T11:36:03;14.05;;;1.52;;
76566;SDS011;65428;53.194;6.132;2023-12-20T11:38:37;13.33;;;1.30;;
76566;SDS011;65428;53.194;6.132;2023-12-20T11:41:05;12.90;;;1.17;;
76566;SDS011;65428;53.194;6.132;2023-12-20T11:43:35;15.60;;;1.80;;
76566;SDS011;65428;53.194;6.132;2023-12-20T11:46:02;11.95;;;1.27;;
76566;SDS011;65428;53.194;6.132;2023-12-20T11:48:30;12.88;;;1.27;;
76566;SDS011;65428;53.194;6.132;2023-12-20T11:50:56;16.13;;;1.65;;
76566;SDS011;65428;53.194;6.132;2023-12-20T11:53:22;11.57;;;1.42;;
76566;SDS011;65428;53.194;6.132;2023-12-20T11:55:51;10.33;;;1.03;;
76566;SDS011;65428;53.194;6.132;2023-12-20T11:58:16;14.02;;;1.40;;
76566;SDS011;65428;53.194;6.132;2023-12-20T12:00:42;13.70;;;1.63;;
76566;SDS011;65428;53.194;6.132;2023-12-20T12:03:08;14.40;;;1.33;;
76566;SDS011;65428;53.194;6.132;2023-12-20T12:05:34;11.80;;;1.40;;
76566;SDS011;65428;53.194;6.132;2023-12-20T12:08:01;13.73;;;1.37;;
76566;SDS011;65428;53.194;6.132;2023-12-20T12:10:27;13.98;;;1.67;;
76566;SDS011;65428;53.194;6.132;2023-12-20T12:12:54;12.50;;;1.50;;
76566;SDS011;65428;53.194;6.132;2023-12-20T12:15:19;12.10;;;1.30;;
76566;SDS011;65428;53.194;6.132;2023-12-20T12:17:56;12.60;;;1.50;;
76566;SDS011;65428;53.194;6.132;2023-12-20T12:20:22;12.05;;;1.42;;
76566;SDS011;65428;53.194;6.132;2023-12-20T12:23:04;11.88;;;1.35;;
76566;SDS011;65428;53.194;6.132;2023-12-20T12:25:31;12.15;;;1.40;;
76566;SDS011;65428;53.194;6.132;2023-12-20T12:27:59;10.73;;;1.60;;
76566;SDS011;65428;53.194;6.132;2023-12-20T12:30:25;12.18;;;1.55;;
76566;SDS011;65428;53.194;6.132;2023-12-20T12:32:52;12.40;;;1.67;;
76566;SDS011;65428;53.194;6.132;2023-12-20T12:35:19;15.02;;;1.52;;
76566;SDS011;65428;53.194;6.132;2023-12-20T12:37:45;14.40;;;1.63;;
76566;SDS011;65428;53.194;6.132;2023-12-20T12:40:11;13.88;;;1.80;;
76566;SDS011;65428;53.194;6.132;2023-12-20T12:42:38;15.60;;;1.67;;
76566;SDS011;65428;53.194;6.132;2023-12-20T12:45:06;15.57;;;2.17;;
76566;SDS011;65428;53.194;6.132;2023-12-20T12:47:32;16.25;;;1.48;;
76566;SDS011;65428;53.194;6.132;2023-12-20T12:49:58;14.18;;;1.50;;
76566;SDS011;65428;53.194;6.132;2023-12-20T12:52:24;17.57;;;1.80;;
76566;SDS011;65428;53.194;6.132;2023-12-20T12:54:51;17.33;;;2.27;;
76566;SDS011;65428;53.194;6.132;2023-12-20T12:57:18;15.38;;;1.42;;
76566;SDS011;65428;53.194;6.132;2023-12-20T12:59:44;15.18;;;1.60;;
76566;SDS011;65428;53.194;6.132;2023-12-20T13:02:13;12.25;;;1.00;;
76566;SDS011;65428;53.194;6.132;2023-12-20T13:04:40;13.70;;;1.30;;
76566;SDS011;65428;53.194;6.132;2023-12-20T13:07:09;13.23;;;1.03;;
76566;SDS011;65428;53.194;6.132;2023-12-20T13:09:36;10.40;;;1.00;;
76566;SDS011;65428;53.194;6.132;2023-12-20T13:12:02;11.67;;;0.90;;
76566;SDS011;65428;53.194;6.132;2023-12-20T13:14:29;11.20;;;0.88;;
76566;SDS011;65428;53.194;6.132;2023-12-20T13:16:57;8.73;;;0.73;;
76566;SDS011;65428;53.194;6.132;2023-12-20T13:19:23;11.60;;;1.30;;
76566;SDS011;65428;53.194;6.132;2023-12-20T13:21:48;7.57;;;1.13;;
76566;SDS011;65428;53.194;6.132;2023-12-20T13:24:14;10.95;;;1.00;;
76566;SDS011;65428;53.194;6.132;2023-12-20T13:26:40;8.90;;;0.90;;
76566;SDS011;65428;53.194;6.132;2023-12-20T13:29:05;9.15;;;0.82;;
76566;SDS011;65428;53.194;6.132;2023-12-20T13:31:31;9.40;;;0.70;;
76566;SDS011;65428;53.194;6.132;2023-12-20T13:33:57;10.40;;;1.00;;
76566;SDS011;65428;53.194;6.132;2023-12-20T13:36:22;8.27;;;0.77;;
76566;SDS011;65428;53.194;6.132;2023-12-20T13:38:48;8.88;;;0.90;;
76566;SDS011;65428;53.194;6.132;2023-12-20T13:41:13;7.00;;;0.47;;
76566;SDS011;65428;53.194;6.132;2023-12-20T13:43:39;6.53;;;0.57;;
76566;SDS011;65428;53.194;6.132;2023-12-20T13:46:05;7.43;;;0.77;;
76566;SDS011;65428;53.194;6.132;2023-12-20T13:48:30;9.17;;;1.07;;
76566;SDS011;65428;53.194;6.132;2023-12-20T13:50:56;6.10;;;0.50;;
76566;SDS011;65428;53.194;6.132;2023-12-20T13:53:22;6.97;;;0.60;;
76566;SDS011;65428;53.194;6.132;2023-12-20T13:55:47;8.77;;;0.67;;
76566;SDS011;65428;53.194;6.132;2023-12-20T13:58:13;5.82;;;0.60;;
76566;SDS011;65428;53.194;6.132;2023-12-20T14:00:39;6.27;;;0.60;;
76566;SDS011;65428;53.194;6.132;2023-12-20T14:03:05;8.40;;;0.67;;
76566;SDS011;65428;53.194;6.132;2023-12-20T14:05:31;6.43;;;0.57;;
76566;SDS011;65428;53.194;6.132;2023-12-20T14:07:57;7.18;;;0.90;;
76566;SDS011;65428;53.194;6.132;2023-12-20T14:10:23;5.72;;;0.60;;
76566;SDS011;65428;53.194;6.132;2023-12-20T14:12:48;8.48;;;0.40;;
76566;SDS011;65428;53.194;6.132;2023-12-20T14:15:14;8.00;;;0.70;;
76566;SDS011;65428;53.194;6.132;2023-12-20T14:17:40;8.07;;;0.70;;
76566;SDS011;65428;53.194;6.132;2023-12-20T14:20:09;5.73;;;0.43;;
76566;SDS011;65428;53.194;6.132;2023-12-20T14:22:37;9.88;;;0.68;;
76566;SDS011;65428;53.194;6.132;2023-12-20T14:25:03;6.88;;;0.70;;
76566;SDS011;65428;53.194;6.132;2023-12-20T14:27:31;10.20;;;0.73;;
76566;SDS011;65428;53.194;6.132;2023-12-20T14:29:56;10.53;;;1.10;;
76566;SDS011;65428;53.194;6.132;2023-12-20T14:32:22;10.25;;;0.77;;
76566;SDS011;65428;53.194;6.132;2023-12-20T14:34:48;8.52;;;0.90;;
76566;SDS011;65428;53.194;6.132;2023-12-20T14:37:14;10.85;;;0.70;;